createdAt,value
2022-11-04T00:01:51.403Z,100.00
2022-11-04T00:04:19.978Z,100.00
2022-11-04T00:06:46.884Z,100.00
2022-11-04T00:09:17.600Z,100.00
2022-11-04T00:12:02.862Z,100.00
2022-11-04T00:14:30.408Z,100.00
2022-11-04T00:17:16.518Z,100.00
2022-11-04T00:20:01.408Z,100.00
2022-11-04T00:22:46.775Z,100.00
2022-11-04T00:25:32.741Z,100.00
2022-11-04T00:28:31.675Z,100.00
2022-11-04T00:31:19.537Z,100.00
2022-11-04T00:33:47.410Z,100.00
2022-11-04T00:36:13.758Z,100.00
2022-11-04T00:38:40.305Z,100.00
2022-11-04T00:41:25.824Z,100.00
2022-11-04T00:43:53.421Z,100.00
2022-11-04T00:46:20.287Z,100.00
2022-11-04T00:48:46.809Z,100.00
2022-11-04T00:53:45.299Z,100.00
2022-11-04T00:56:11.646Z,100.00
2022-11-04T00:58:38.010Z,100.00
2022-11-04T01:01:11.675Z,100.00
2022-11-04T01:03:38.523Z,100.00
2022-11-04T01:06:05.619Z,100.00
2022-11-04T01:08:34.108Z,100.00
2022-11-04T01:11:08.902Z,100.00
2022-11-04T01:13:37.327Z,100.00
2022-11-04T01:16:07.096Z,100.00
2022-11-04T01:18:34.029Z,100.00
2022-11-04T01:21:01.915Z,100.00
2022-11-04T01:23:28.991Z,100.00
2022-11-04T01:25:55.416Z,100.00
2022-11-04T01:28:21.878Z,100.00
2022-11-04T01:30:48.271Z,100.00
2022-11-04T01:33:14.650Z,100.00
2022-11-04T01:35:41.059Z,100.00
2022-11-04T01:38:07.616Z,100.00
2022-11-04T01:40:41.332Z,100.00
2022-11-04T01:43:20.326Z,100.00
2022-11-04T01:45:52.051Z,100.00
2022-11-04T01:48:32.587Z,100.00
2022-11-04T01:50:59.960Z,100.00
2022-11-04T01:53:39.811Z,100.00
2022-11-04T01:56:12.025Z,100.00
2022-11-04T01:58:51.196Z,100.00
2022-11-04T02:01:18.342Z,100.00
2022-11-04T02:03:51.047Z,100.00
2022-11-04T02:06:19.608Z,100.00
2022-11-04T02:08:47.195Z,100.00
2022-11-04T02:11:33.813Z,100.00
2022-11-04T02:14:00.965Z,100.00
2022-11-04T02:16:39.911Z,100.00
2022-11-04T02:19:21.688Z,100.00
2022-11-04T02:22:17.352Z,100.00
2022-11-04T02:25:11.919Z,100.00
2022-11-04T02:28:09.302Z,100.00
2022-11-04T02:30:50.307Z,100.00
2022-11-04T02:33:26.597Z,100.00
2022-11-04T02:36:06.057Z,100.00
2022-11-04T02:38:37.692Z,100.00
2022-11-04T02:41:33.327Z,100.00
2022-11-04T02:44:14.816Z,100.00
2022-11-04T02:46:48.697Z,100.00
2022-11-04T02:49:25.897Z,100.00
2022-11-04T02:52:03.258Z,100.00
2022-11-04T02:55:00.879Z,100.00
2022-11-04T02:57:31.910Z,100.00
2022-11-04T03:00:07.941Z,100.00
2022-11-04T03:02:46.164Z,100.00
2022-11-04T03:05:16.220Z,100.00
2022-11-04T03:07:46.269Z,100.00
2022-11-04T03:10:42.639Z,100.00
2022-11-04T03:13:24.894Z,100.00
2022-11-04T03:15:58.205Z,100.00
2022-11-04T03:19:03.444Z,100.00
2022-11-04T03:21:37.012Z,100.00
2022-11-04T03:24:04.605Z,100.00
2022-11-04T03:26:46.851Z,100.00
2022-11-04T03:29:27.466Z,100.00
2022-11-04T03:32:19.317Z,100.00
2022-11-04T03:34:45.875Z,100.00
2022-11-04T03:37:12.219Z,100.00
2022-11-04T03:39:39.598Z,100.00
2022-11-04T03:42:22.988Z,100.00
2022-11-04T03:44:54.868Z,100.00
2022-11-04T03:47:24.412Z,100.00
2022-11-04T03:49:56.021Z,100.00
2022-11-04T03:52:22.458Z,100.00
2022-11-04T03:54:48.994Z,100.00
2022-11-04T03:58:00.946Z,100.00
2022-11-04T04:00:33.821Z,100.00
2022-11-04T04:03:13.413Z,100.00
2022-11-04T04:05:51.032Z,100.00
2022-11-04T04:08:39.500Z,100.00
2022-11-04T04:11:50.711Z,100.00
2022-11-04T04:14:36.976Z,100.00
2022-11-04T04:17:07.080Z,100.00
2022-11-04T04:19:34.468Z,100.00
2022-11-04T04:22:06.526Z,100.00
2022-11-04T04:24:55.277Z,100.00
2022-11-04T04:27:32.049Z,100.00
2022-11-04T04:30:12.081Z,100.00
2022-11-04T04:32:43.435Z,100.00
2022-11-04T04:35:29.516Z,100.00
2022-11-04T04:38:20.000Z,100.00
2022-11-04T04:41:12.303Z,100.00
2022-11-04T04:44:00.118Z,100.00
2022-11-04T04:46:29.020Z,100.00
2022-11-04T04:48:55.924Z,100.00
2022-11-04T04:51:22.702Z,100.00
2022-11-04T04:53:49.052Z,100.00
2022-11-04T04:56:15.401Z,100.00
2022-11-04T04:58:41.763Z,100.00
2022-11-04T05:01:09.061Z,100.00
2022-11-04T05:03:35.557Z,100.00
2022-11-04T05:06:01.905Z,100.00
2022-11-04T05:08:28.265Z,100.00
2022-11-04T05:10:54.660Z,100.00
2022-11-04T05:13:26.898Z,100.00
2022-11-04T05:15:53.433Z,100.00
2022-11-04T05:18:20.095Z,100.00
2022-11-04T05:20:46.433Z,100.00
2022-11-04T05:23:13.645Z,100.00
2022-11-04T05:25:41.449Z,100.00
2022-11-04T05:28:08.839Z,100.00
2022-11-04T05:30:35.437Z,100.00
2022-11-04T05:33:04.861Z,100.00
2022-11-04T05:35:32.471Z,100.00
2022-11-04T05:37:58.834Z,100.00
2022-11-04T05:40:25.379Z,100.00
2022-11-04T05:42:51.845Z,100.00
2022-11-04T05:45:18.399Z,100.00
2022-11-04T05:47:44.758Z,100.00
2022-11-04T05:50:11.135Z,100.00
2022-11-04T05:52:37.569Z,100.00
2022-11-04T05:55:04.155Z,100.00
2022-11-04T05:57:30.546Z,100.00
2022-11-04T05:59:56.889Z,100.00
2022-11-04T06:02:23.493Z,100.00
2022-11-04T06:04:49.899Z,100.00
2022-11-04T06:07:16.261Z,100.00
2022-11-04T06:09:42.673Z,100.00
2022-11-04T06:12:12.242Z,100.00
2022-11-04T06:14:38.628Z,100.00
2022-11-04T06:17:05.058Z,100.00
2022-11-04T06:19:31.543Z,100.00
2022-11-04T06:21:57.999Z,100.00
2022-11-04T06:24:24.461Z,100.00
2022-11-04T06:26:50.792Z,100.00
2022-11-04T06:29:17.411Z,100.00
2022-11-04T06:31:43.742Z,100.00
2022-11-04T06:34:10.612Z,100.00
2022-11-04T06:36:36.951Z,100.00
2022-11-04T06:39:05.744Z,100.00
2022-11-04T06:41:32.096Z,100.00
2022-11-04T06:43:58.459Z,100.00
2022-11-04T06:46:34.386Z,100.00
2022-11-04T06:49:00.874Z,100.00
2022-11-04T06:51:27.442Z,100.00
2022-11-04T06:53:54.264Z,100.00
2022-11-04T06:56:20.675Z,100.00
2022-11-04T06:58:51.280Z,100.00
2022-11-04T07:01:22.000Z,100.00
2022-11-04T07:03:50.515Z,100.00
2022-11-04T07:06:17.220Z,100.00
2022-11-04T07:08:43.660Z,100.00
2022-11-04T07:11:10.078Z,100.00
2022-11-04T07:13:36.485Z,100.00
2022-11-04T07:16:07.063Z,100.00
2022-11-04T07:18:33.403Z,100.00
2022-11-04T07:21:00.133Z,100.00
2022-11-04T07:23:26.629Z,100.00
2022-11-04T07:25:54.290Z,100.00
2022-11-04T07:28:21.032Z,100.00
2022-11-04T07:30:47.474Z,100.00
2022-11-04T07:33:13.829Z,100.00
2022-11-04T07:35:40.186Z,100.00
2022-11-04T07:38:06.970Z,100.00
2022-11-04T07:40:34.441Z,100.00
2022-11-04T07:43:01.515Z,100.00
2022-11-04T07:45:27.876Z,100.00
2022-11-04T07:47:54.218Z,100.00
2022-11-04T07:50:20.670Z,100.00
2022-11-04T07:52:47.135Z,100.00
2022-11-04T07:55:18.381Z,100.00
2022-11-04T07:57:48.246Z,100.00
2022-11-04T08:00:16.492Z,100.00
2022-11-04T08:02:46.882Z,100.00
2022-11-04T08:05:16.713Z,100.00
2022-11-04T08:07:43.699Z,100.00
2022-11-04T08:10:10.351Z,100.00
2022-11-04T08:12:38.095Z,100.00
2022-11-04T08:15:05.286Z,100.00
2022-11-04T08:17:31.651Z,100.00
2022-11-04T08:19:58.007Z,100.00
2022-11-04T08:22:27.561Z,100.00
2022-11-04T08:24:56.681Z,100.00
2022-11-04T08:27:23.305Z,100.00
2022-11-04T08:29:49.699Z,100.00
2022-11-04T08:32:16.044Z,100.00
2022-11-04T08:34:42.408Z,100.00
2022-11-04T08:37:08.961Z,100.00
2022-11-04T08:39:35.507Z,100.00
2022-11-04T08:42:01.900Z,100.00
2022-11-04T08:44:28.262Z,100.00
2022-11-04T08:46:54.602Z,100.00
2022-11-04T08:49:21.644Z,100.00
2022-11-04T08:51:54.841Z,100.00
2022-11-04T08:54:21.192Z,100.00
2022-11-04T08:56:47.567Z,100.00
2022-11-04T08:59:15.011Z,100.00
2022-11-04T09:01:42.361Z,100.00
2022-11-04T09:04:11.248Z,100.00
2022-11-04T09:06:40.984Z,100.00
2022-11-04T09:09:09.228Z,100.00
2022-11-04T09:11:39.336Z,100.00
2022-11-04T09:14:06.108Z,100.00
2022-11-04T09:16:34.734Z,100.00
2022-11-04T09:19:01.852Z,100.00
2022-11-04T09:21:28.941Z,100.00
2022-11-04T09:23:55.979Z,100.00
2022-11-04T09:26:23.489Z,100.00
2022-11-04T09:28:54.927Z,100.00
2022-11-04T09:31:21.830Z,100.00
2022-11-04T09:33:48.364Z,100.00
2022-11-04T09:36:14.709Z,100.00
2022-11-04T09:38:42.047Z,100.00
2022-11-04T09:41:12.444Z,100.00
2022-11-04T09:43:57.511Z,100.00
2022-11-04T09:46:24.366Z,100.00
2022-11-04T09:48:54.400Z,100.00
2022-11-04T09:51:48.030Z,100.00
2022-11-04T09:54:20.590Z,100.00
2022-11-04T09:56:51.157Z,100.00
2022-11-04T09:59:27.135Z,100.00
2022-11-04T10:02:20.728Z,100.00
2022-11-04T10:05:09.495Z,100.00
2022-11-04T10:07:57.131Z,100.00
2022-11-04T10:10:53.149Z,99.21
2022-11-04T10:13:28.105Z,100.00
2022-11-04T10:16:12.834Z,99.93
2022-11-04T10:19:06.034Z,100.00
2022-11-04T10:22:10.439Z,100.00
2022-11-04T10:24:56.080Z,99.66
2022-11-04T10:27:30.588Z,100.00
2022-11-04T10:30:05.115Z,99.32
2022-11-04T10:32:51.497Z,98.69
2022-11-04T10:35:39.673Z,99.26
2022-11-04T10:38:38.248Z,98.97
2022-11-04T10:41:18.044Z,97.22
2022-11-04T10:43:44.619Z,98.86
2022-11-04T10:46:24.889Z,99.07
2022-11-04T10:48:59.098Z,98.78
2022-11-04T10:51:25.593Z,97.91
2022-11-04T10:53:58.235Z,99.00
2022-11-04T10:56:34.033Z,98.85
2022-11-04T10:59:20.259Z,98.21
2022-11-04T11:02:02.352Z,99.69
2022-11-04T11:04:31.367Z,99.41
2022-11-04T11:07:00.110Z,97.46
2022-11-04T11:09:29.746Z,97.89
2022-11-04T11:12:49.637Z,97.67
2022-11-04T11:15:40.049Z,96.15
2022-11-04T11:18:06.348Z,95.65
2022-11-04T11:20:35.749Z,96.63
2022-11-04T11:23:04.970Z,97.99
2022-11-04T11:25:36.008Z,98.54
2022-11-04T11:28:09.134Z,98.71
2022-11-04T11:30:42.114Z,100.00
2022-11-04T11:33:18.575Z,100.00
2022-11-04T11:35:58.858Z,99.96
2022-11-04T11:38:27.912Z,100.00
2022-11-04T11:41:24.506Z,100.00
2022-11-04T11:43:53.973Z,100.00
2022-11-04T11:46:30.123Z,100.00
2022-11-04T11:49:01.433Z,100.00
2022-11-04T11:51:32.418Z,100.00
2022-11-04T11:54:33.776Z,100.00
2022-11-04T11:57:14.410Z,100.00
2022-11-04T12:03:00.119Z,100.00
2022-11-04T12:11:59.894Z,100.00
2022-11-04T12:14:36.381Z,100.00
2022-11-04T12:17:06.357Z,100.00
2022-11-04T12:19:40.655Z,100.00
2022-11-04T12:22:16.084Z,100.00
2022-11-04T12:25:08.616Z,100.00
2022-11-04T12:27:47.684Z,100.00
2022-11-04T12:30:23.737Z,100.00
2022-11-04T12:33:26.430Z,100.00
2022-11-04T12:36:03.072Z,100.00
2022-11-04T12:38:45.859Z,100.00
2022-11-04T12:41:34.659Z,100.00
2022-11-04T12:44:07.311Z,100.00
2022-11-04T12:46:40.241Z,100.00
2022-11-04T12:49:24.885Z,100.00
2022-11-04T12:52:18.588Z,99.33
2022-11-04T12:55:22.940Z,100.00
2022-11-04T12:57:52.351Z,100.00
2022-11-04T13:00:24.543Z,99.88
2022-11-04T13:03:00.660Z,100.00
2022-11-04T13:05:51.344Z,100.00
2022-11-04T13:08:31.781Z,100.00
2022-11-04T13:11:23.810Z,99.78
2022-11-04T13:14:01.863Z,100.00
2022-11-04T13:16:31.473Z,100.00
2022-11-04T13:18:58.506Z,100.00
2022-11-04T13:21:30.126Z,100.00
2022-11-04T13:24:11.238Z,100.00
2022-11-04T13:26:37.589Z,100.00
2022-11-04T13:29:08.911Z,100.00
2022-11-04T13:31:54.222Z,100.00
2022-11-04T13:34:33.790Z,100.00
2022-11-04T13:37:36.198Z,100.00
2022-11-04T13:40:25.752Z,100.00
2022-11-04T13:43:38.405Z,100.00
2022-11-04T13:46:10.741Z,100.00
2022-11-04T13:48:48.085Z,100.00
2022-11-04T13:51:14.454Z,100.00
2022-11-04T13:53:51.196Z,100.00
2022-11-04T13:56:37.063Z,100.00
2022-11-04T13:59:18.431Z,100.00
2022-11-04T14:01:45.422Z,100.00
2022-11-04T14:04:30.101Z,100.00
2022-11-04T14:06:58.271Z,100.00
2022-11-04T14:09:49.189Z,100.00
2022-11-04T14:12:18.191Z,100.00
2022-11-04T14:14:47.705Z,100.00
2022-11-04T14:17:32.591Z,100.00
2022-11-04T14:20:06.469Z,100.00
2022-11-04T14:22:57.745Z,100.00
2022-11-04T14:25:41.513Z,100.00
2022-11-04T14:28:10.743Z,100.00
2022-11-04T14:30:44.549Z,100.00
2022-11-04T14:33:40.667Z,100.00
2022-11-04T14:36:19.103Z,100.00
2022-11-04T14:39:12.404Z,99.86
2022-11-04T14:42:12.394Z,100.00
2022-11-04T14:44:49.587Z,100.00
2022-11-04T14:47:29.959Z,98.77
2022-11-04T14:49:59.342Z,100.00
2022-11-04T14:52:26.943Z,99.58
2022-11-04T14:55:11.342Z,99.81
2022-11-04T14:57:40.403Z,99.86
2022-11-04T15:00:25.517Z,100.00
2022-11-04T15:03:12.592Z,99.60
2022-11-04T15:05:53.681Z,99.17
2022-11-04T15:08:33.753Z,98.86
2022-11-04T15:11:17.372Z,99.23
2022-11-04T15:13:43.980Z,99.61
2022-11-04T15:16:15.915Z,100.00
2022-11-04T15:18:42.556Z,100.00
2022-11-04T15:21:10.352Z,100.00
2022-11-04T15:23:42.178Z,100.00
2022-11-04T15:26:23.805Z,100.00
2022-11-04T15:28:54.485Z,100.00
2022-11-04T15:31:23.895Z,100.00
2022-11-04T15:33:56.589Z,100.00
2022-11-04T15:36:32.948Z,100.00
2022-11-04T15:39:14.242Z,100.00
2022-11-04T15:42:01.094Z,100.00
2022-11-04T15:44:32.770Z,100.00
2022-11-04T15:47:23.550Z,100.00
2022-11-04T15:49:52.424Z,100.00
2022-11-04T15:52:27.622Z,100.00
2022-11-04T15:54:59.211Z,100.00
2022-11-04T15:57:34.762Z,100.00
2022-11-04T16:00:08.713Z,100.00
2022-11-04T16:02:45.015Z,100.00
2022-11-04T16:05:11.311Z,100.00
2022-11-04T16:07:40.438Z,100.00
2022-11-04T16:10:31.601Z,100.00
2022-11-04T16:13:02.114Z,100.00
2022-11-04T16:15:34.357Z,100.00
2022-11-04T16:18:02.576Z,100.00
2022-11-04T16:20:30.964Z,100.00
2022-11-04T16:23:00.239Z,100.00
2022-11-04T16:25:32.474Z,100.00
2022-11-04T16:28:00.556Z,100.00
2022-11-04T16:30:27.600Z,100.00
2022-11-04T16:32:55.850Z,100.00
2022-11-04T16:35:27.640Z,100.00
2022-11-04T16:37:55.962Z,100.00
2022-11-04T16:40:24.128Z,100.00
2022-11-04T16:42:51.059Z,100.00
2022-11-04T16:45:26.041Z,100.00
2022-11-04T16:47:53.194Z,100.00
2022-11-04T16:50:19.571Z,100.00
2022-11-04T16:52:46.316Z,100.00
2022-11-04T16:55:13.770Z,100.00
2022-11-04T16:57:40.418Z,100.00
2022-11-04T17:00:07.821Z,100.00
2022-11-04T17:02:41.077Z,100.00
2022-11-04T17:05:08.663Z,100.00
2022-11-04T17:07:52.024Z,100.00
2022-11-04T17:10:27.999Z,100.00
2022-11-04T17:12:54.572Z,100.00
2022-11-04T17:15:21.152Z,100.00
2022-11-04T17:17:47.578Z,100.00
2022-11-04T17:20:17.406Z,100.00
2022-11-04T17:22:44.282Z,100.00
2022-11-04T17:25:18.143Z,100.00
2022-11-04T17:27:44.712Z,100.00
2022-11-04T17:30:14.972Z,100.00
2022-11-04T17:32:42.094Z,100.00
2022-11-04T17:35:09.391Z,100.00
2022-11-04T17:37:35.813Z,100.00
2022-11-04T17:40:02.145Z,100.00
2022-11-04T17:42:47.077Z,100.00
2022-11-04T17:45:13.415Z,100.00
2022-11-04T17:47:39.841Z,100.00
2022-11-04T17:50:07.970Z,100.00
2022-11-04T17:52:35.428Z,100.00
2022-11-04T17:55:02.078Z,100.00
2022-11-04T17:57:28.496Z,100.00
2022-11-04T17:59:54.854Z,100.00
2022-11-04T18:02:21.307Z,100.00
2022-11-04T18:04:47.770Z,100.00
2022-11-04T18:07:14.201Z,100.00
2022-11-04T18:09:40.574Z,100.00
2022-11-04T18:12:25.383Z,100.00
2022-11-04T18:14:51.765Z,100.00
2022-11-04T18:17:18.161Z,100.00
2022-11-04T18:19:44.544Z,100.00
2022-11-04T18:22:10.942Z,100.00
2022-11-04T18:24:37.289Z,100.00
2022-11-04T18:27:03.759Z,100.00
2022-11-04T18:29:30.109Z,100.00
2022-11-04T18:31:56.525Z,100.00
2022-11-04T18:34:22.855Z,100.00
2022-11-04T18:36:49.562Z,100.00
2022-11-04T18:39:18.639Z,100.00
2022-11-04T18:41:45.784Z,100.00
2022-11-04T18:44:17.136Z,100.00
2022-11-04T18:46:44.295Z,100.00
2022-11-04T18:49:11.685Z,100.00
2022-11-04T18:51:38.282Z,100.00
2022-11-04T18:54:06.524Z,100.00
2022-11-04T18:56:33.637Z,100.00
2022-11-04T18:59:01.234Z,100.00
2022-11-04T19:01:30.495Z,100.00
2022-11-04T19:03:59.795Z,100.00
2022-11-04T19:06:29.833Z,100.00
2022-11-04T19:09:13.315Z,100.00
2022-11-04T19:11:45.692Z,100.00
2022-11-04T19:14:14.935Z,100.00
2022-11-04T19:16:42.347Z,100.00
2022-11-04T19:19:11.903Z,100.00
2022-11-04T19:21:38.391Z,100.00
2022-11-04T19:24:06.864Z,100.00
2022-11-04T19:26:35.568Z,100.00
2022-11-04T19:29:05.276Z,100.00
2022-11-04T19:31:32.264Z,100.00
2022-11-04T19:34:00.976Z,100.00
2022-11-04T19:36:27.387Z,100.00
2022-11-04T19:38:55.284Z,100.00
2022-11-04T19:41:42.268Z,100.00
2022-11-04T19:44:12.454Z,100.00
2022-11-04T19:46:39.405Z,100.00
2022-11-04T19:49:06.706Z,100.00
2022-11-04T19:51:34.312Z,100.00
2022-11-04T19:54:02.060Z,100.00
2022-11-04T19:56:29.046Z,100.00
2022-11-04T19:58:55.420Z,100.00
2022-11-04T20:01:21.887Z,100.00
2022-11-04T20:03:48.482Z,100.00
2022-11-04T20:06:15.970Z,100.00
2022-11-04T20:08:44.089Z,100.00
2022-11-04T20:11:11.442Z,100.00
2022-11-04T20:13:44.316Z,100.00
2022-11-04T20:16:24.389Z,100.00
2022-11-04T20:18:57.428Z,100.00
2022-11-04T20:21:26.948Z,100.00
2022-11-04T20:23:58.316Z,100.00
2022-11-04T20:26:26.195Z,100.00
2022-11-04T20:28:56.841Z,100.00
2022-11-04T20:31:25.300Z,100.00
2022-11-04T20:33:52.959Z,100.00
2022-11-04T20:36:22.932Z,100.00
2022-11-04T20:38:49.396Z,100.00
2022-11-04T20:41:19.723Z,100.00
2022-11-04T20:43:47.373Z,100.00
2022-11-04T20:46:24.486Z,100.00
2022-11-04T20:48:51.593Z,100.00
2022-11-04T20:51:24.085Z,100.00
2022-11-04T20:53:55.947Z,100.00
2022-11-04T20:56:24.557Z,100.00
2022-11-04T20:58:55.916Z,100.00
2022-11-04T21:01:29.646Z,100.00
2022-11-04T21:04:08.388Z,100.00
2022-11-04T21:06:37.648Z,100.00
2022-11-04T21:09:05.129Z,100.00
2022-11-04T21:11:32.473Z,100.00
2022-11-04T21:13:59.383Z,100.00
2022-11-04T21:16:26.325Z,100.00
2022-11-04T21:18:52.764Z,100.00
2022-11-04T21:21:19.552Z,100.00
2022-11-04T21:23:46.673Z,100.00
2022-11-04T21:26:20.884Z,100.00
2022-11-04T21:28:49.439Z,100.00
2022-11-04T21:31:15.758Z,100.00
2022-11-04T21:33:42.072Z,100.00
2022-11-04T21:36:11.205Z,100.00
2022-11-04T21:38:37.635Z,100.00
2022-11-04T21:41:10.239Z,100.00
2022-11-04T21:43:36.617Z,100.00
2022-11-04T21:46:08.517Z,100.00
2022-11-04T21:48:36.058Z,100.00
2022-11-04T21:51:09.072Z,100.00
2022-11-04T21:53:36.203Z,100.00
2022-11-04T21:56:08.894Z,100.00
2022-11-04T21:58:36.438Z,100.00
2022-11-04T22:01:04.981Z,100.00
2022-11-04T22:03:31.738Z,100.00
2022-11-04T22:06:02.882Z,100.00
2022-11-04T22:08:34.499Z,100.00
2022-11-04T22:11:19.408Z,100.00
2022-11-04T22:13:46.235Z,100.00
2022-11-04T22:16:15.909Z,100.00
2022-11-04T22:18:42.922Z,100.00
2022-11-04T22:21:15.127Z,100.00
2022-11-04T22:23:41.943Z,100.00
2022-11-04T22:26:12.525Z,100.00
2022-11-04T22:28:38.926Z,100.00
2022-11-04T22:31:18.239Z,100.00
2022-11-04T22:33:48.202Z,100.00
2022-11-04T22:36:14.743Z,100.00
2022-11-04T22:38:42.641Z,100.00
2022-11-04T22:41:12.512Z,100.00
2022-11-04T22:43:39.103Z,100.00
2022-11-04T22:46:16.690Z,100.00
2022-11-04T22:48:43.281Z,100.00
2022-11-04T22:51:10.247Z,100.00
2022-11-04T22:53:37.713Z,100.00
2022-11-04T22:56:06.444Z,100.00
2022-11-04T22:58:32.977Z,100.00
2022-11-04T23:01:08.497Z,100.00
2022-11-04T23:03:35.024Z,100.00
2022-11-04T23:06:03.389Z,100.00
2022-11-04T23:08:32.204Z,100.00
2022-11-04T23:11:22.103Z,100.00
2022-11-04T23:14:14.298Z,100.00
2022-11-04T23:17:07.837Z,100.00
2022-11-04T23:19:34.499Z,100.00
2022-11-04T23:22:19.228Z,100.00
2022-11-04T23:25:04.009Z,100.00
2022-11-04T23:27:48.875Z,100.00
2022-11-04T23:30:21.079Z,100.00
2022-11-04T23:32:52.719Z,100.00
2022-11-04T23:35:39.902Z,100.00
2022-11-04T23:38:06.267Z,100.00
2022-11-04T23:40:32.782Z,100.00
2022-11-04T23:42:59.298Z,100.00
2022-11-04T23:45:44.103Z,100.00
2022-11-04T23:48:29.914Z,100.00
2022-11-04T23:51:16.176Z,100.00
2022-11-04T23:54:02.055Z,100.00
2022-11-04T23:56:47.775Z,100.00
2022-11-04T23:59:35.023Z,100.00
